createdAt,value
2022-10-19T00:00:32.655Z,22.98
2022-10-19T00:02:59.020Z,24.83
2022-10-19T00:05:25.593Z,25.30
2022-10-19T00:07:51.969Z,24.40
2022-10-19T00:10:18.411Z,31.23
2022-10-19T00:12:44.817Z,20.58
2022-10-19T00:15:11.265Z,19.65
2022-10-19T00:17:39.618Z,25.48
2022-10-19T00:20:06.315Z,26.87
2022-10-19T00:22:33.047Z,26.73
2022-10-19T00:24:59.677Z,24.17
2022-10-19T00:27:26.109Z,24.00
2022-10-19T00:29:52.470Z,21.13
2022-10-19T00:32:19.758Z,18.63
2022-10-19T00:34:46.159Z,17.50
2022-10-19T00:37:12.532Z,20.17
2022-10-19T00:39:39.377Z,19.95
2022-10-19T00:42:05.922Z,22.27
2022-10-19T00:44:32.272Z,19.13
2022-10-19T00:47:02.157Z,20.23
2022-10-19T00:49:33.217Z,20.45
2022-10-19T00:52:14.611Z,99.95
2022-10-19T00:54:43.946Z,17.20
2022-10-19T00:57:11.564Z,24.30
2022-10-19T00:59:42.321Z,22.58
2022-10-19T01:02:09.140Z,24.48
2022-10-19T01:04:38.311Z,21.52
2022-10-19T01:07:06.769Z,28.10
2022-10-19T01:09:33.210Z,20.73
2022-10-19T01:12:10.836Z,22.73
2022-10-19T01:14:44.452Z,21.30
2022-10-19T01:17:44.689Z,18.08
2022-10-19T01:20:41.741Z,21.95
2022-10-19T01:23:17.159Z,19.57
2022-10-19T01:25:46.181Z,19.08
2022-10-19T01:28:43.635Z,21.42
2022-10-19T01:31:19.038Z,27.17
2022-10-19T01:34:03.536Z,26.10
2022-10-19T01:36:46.613Z,19.67
2022-10-19T01:39:38.356Z,19.15
2022-10-19T01:42:12.244Z,22.60
2022-10-19T01:44:48.009Z,20.80
2022-10-19T01:47:27.391Z,24.88
2022-10-19T01:49:59.010Z,20.30
2022-10-19T01:52:27.098Z,32.97
2022-10-19T01:54:59.451Z,26.60
2022-10-19T01:57:32.067Z,21.73
2022-10-19T01:59:58.632Z,22.05
2022-10-19T02:02:27.872Z,19.67
2022-10-19T02:04:57.246Z,25.25
2022-10-19T02:07:25.034Z,26.48
2022-10-19T02:09:51.482Z,21.58
2022-10-19T02:12:20.332Z,23.80
2022-10-19T02:14:51.910Z,22.87
2022-10-19T02:17:24.048Z,21.80
2022-10-19T02:19:50.908Z,22.88
2022-10-19T02:22:17.584Z,26.63
2022-10-19T02:24:44.056Z,22.30
2022-10-19T02:27:11.269Z,19.80
2022-10-19T02:29:39.745Z,22.38
2022-10-19T02:32:07.126Z,19.67
2022-10-19T02:34:35.151Z,16.67
2022-10-19T02:37:02.042Z,23.38
2022-10-19T02:39:28.645Z,32.83
2022-10-19T02:42:07.207Z,27.70
2022-10-19T02:44:47.205Z,24.10
2022-10-19T02:47:18.460Z,28.80
2022-10-19T02:49:46.557Z,27.60
2022-10-19T02:52:13.980Z,21.60
2022-10-19T02:54:43.728Z,19.92
2022-10-19T02:57:22.109Z,24.27
2022-10-19T02:59:49.071Z,18.25
2022-10-19T03:02:17.033Z,16.75
2022-10-19T03:07:17.389Z,17.73
2022-10-19T03:09:44.427Z,13.65
2022-10-19T03:12:12.572Z,14.40
2022-10-19T03:14:39.236Z,12.65
2022-10-19T03:17:05.654Z,12.40
2022-10-19T03:19:32.428Z,15.45
2022-10-19T03:21:58.800Z,13.00
2022-10-19T03:24:25.265Z,15.00
2022-10-19T03:26:51.820Z,48.38
2022-10-19T03:29:18.279Z,46.47
2022-10-19T03:31:44.656Z,85.80
2022-10-19T03:34:11.053Z,48.90
2022-10-19T03:36:39.592Z,33.50
2022-10-19T03:39:10.175Z,28.20
2022-10-19T03:41:37.581Z,34.40
2022-10-19T03:44:05.259Z,85.05
2022-10-19T03:46:32.648Z,61.45
2022-10-19T03:48:59.080Z,77.22
2022-10-19T03:51:27.760Z,66.18
2022-10-19T03:53:58.455Z,54.50
2022-10-19T03:56:27.700Z,66.45
2022-10-19T03:58:55.916Z,61.40
2022-10-19T04:01:34.490Z,44.88
2022-10-19T04:04:03.643Z,72.25
2022-10-19T04:06:32.918Z,62.57
2022-10-19T04:08:59.835Z,69.75
2022-10-19T04:11:29.089Z,62.63
2022-10-19T04:13:57.259Z,41.03
2022-10-19T04:16:27.796Z,33.33
2022-10-19T04:18:54.826Z,44.17
2022-10-19T04:21:21.188Z,34.22
2022-10-19T04:23:47.868Z,41.78
2022-10-19T04:26:14.678Z,30.58
2022-10-19T04:28:41.250Z,23.30
2022-10-19T04:31:07.723Z,26.20
2022-10-19T04:33:34.774Z,28.48
2022-10-19T04:36:03.463Z,22.50
2022-10-19T04:38:30.045Z,26.38
2022-10-19T04:41:02.287Z,23.45
2022-10-19T04:43:29.018Z,27.77
2022-10-19T04:45:55.541Z,24.50
2022-10-19T04:48:21.977Z,26.02
2022-10-19T04:50:48.444Z,36.95
2022-10-19T04:53:14.841Z,61.53
2022-10-19T04:55:42.282Z,45.90
2022-10-19T04:58:09.001Z,58.72
2022-10-19T05:00:38.482Z,41.70
2022-10-19T05:03:05.107Z,31.90
2022-10-19T05:05:33.443Z,29.88
2022-10-19T05:08:00.006Z,46.03
2022-10-19T05:10:26.859Z,39.78
2022-10-19T05:12:53.640Z,35.00
2022-10-19T05:15:20.412Z,34.28
2022-10-19T05:17:46.839Z,33.05
2022-10-19T05:20:13.212Z,34.53
2022-10-19T05:22:40.218Z,24.77
2022-10-19T05:25:07.483Z,40.03
2022-10-19T05:27:34.196Z,148.50
2022-10-19T05:30:00.800Z,83.32
2022-10-19T05:32:28.534Z,38.63
2022-10-19T05:34:54.968Z,34.42
2022-10-19T05:37:21.652Z,62.63
2022-10-19T05:39:48.142Z,43.13
2022-10-19T05:42:14.674Z,65.03
2022-10-19T05:44:41.132Z,90.83
2022-10-19T05:47:07.563Z,184.40
2022-10-19T05:49:34.122Z,67.05
2022-10-19T05:52:00.564Z,45.55
2022-10-19T05:54:28.533Z,45.28
2022-10-19T05:56:55.375Z,51.57
2022-10-19T05:59:22.184Z,53.10
2022-10-19T06:01:48.998Z,37.00
2022-10-19T06:06:47.326Z,37.13
2022-10-19T06:09:13.996Z,66.80
2022-10-19T06:11:41.748Z,58.92
2022-10-19T06:14:12.376Z,47.22
2022-10-19T06:16:38.941Z,55.13
2022-10-19T06:19:07.153Z,101.63
2022-10-19T06:21:38.612Z,48.43
2022-10-19T06:24:06.569Z,21.48
2022-10-19T06:26:35.578Z,34.03
2022-10-19T06:29:03.203Z,56.70
2022-10-19T06:31:34.944Z,38.33
2022-10-19T06:34:01.787Z,36.33
2022-10-19T06:36:31.561Z,31.88
2022-10-19T06:38:59.762Z,100.10
2022-10-19T06:41:26.608Z,34.85
2022-10-19T06:43:54.467Z,38.50
2022-10-19T06:46:23.467Z,29.63
2022-10-19T06:48:55.125Z,26.65
2022-10-19T06:51:22.456Z,28.85
2022-10-19T06:53:54.205Z,19.38
2022-10-19T06:56:24.394Z,18.50
2022-10-19T06:58:50.948Z,27.63
2022-10-19T07:01:18.332Z,19.70
2022-10-19T07:03:44.791Z,10.18
2022-10-19T07:06:12.883Z,18.30
2022-10-19T07:08:41.601Z,13.93
2022-10-19T07:11:12.317Z,53.60
2022-10-19T07:13:39.129Z,16.38
2022-10-19T07:16:15.874Z,10.95
2022-10-19T07:18:46.955Z,16.63
2022-10-19T07:21:15.422Z,12.60
2022-10-19T07:23:43.599Z,22.53
2022-10-19T07:26:19.450Z,13.90
2022-10-19T07:28:47.329Z,16.70
2022-10-19T07:31:17.825Z,22.58
2022-10-19T07:33:44.982Z,12.88
2022-10-19T07:36:13.223Z,8.47
2022-10-19T07:38:40.441Z,8.93
2022-10-19T07:41:09.744Z,14.82
2022-10-19T07:43:36.324Z,9.18
2022-10-19T07:46:05.691Z,8.00
2022-10-19T07:48:32.626Z,8.53
2022-10-19T07:51:01.401Z,7.78
2022-10-19T07:53:28.435Z,9.65
2022-10-19T07:55:55.060Z,8.27
2022-10-19T07:58:21.505Z,12.05
2022-10-19T08:00:47.999Z,9.20
2022-10-19T08:06:03.360Z,7.68
2022-10-19T08:08:30.151Z,7.60
2022-10-19T08:10:56.957Z,9.23
2022-10-19T08:13:24.075Z,13.93
2022-10-19T08:15:50.530Z,11.52
2022-10-19T08:18:18.356Z,9.60
2022-10-19T08:20:44.962Z,9.48
2022-10-19T08:23:11.556Z,7.78
2022-10-19T08:25:37.933Z,7.60
2022-10-19T08:28:04.445Z,10.98
2022-10-19T08:30:31.175Z,10.82
2022-10-19T08:32:57.582Z,11.63
2022-10-19T08:35:24.010Z,13.25
2022-10-19T08:37:50.720Z,9.37
2022-10-19T08:40:22.710Z,10.20
2022-10-19T08:43:04.227Z,11.90
2022-10-19T08:48:32.981Z,13.60
2022-10-19T08:51:00.765Z,13.53
2022-10-19T08:53:37.256Z,15.98
2022-10-19T08:56:49.419Z,13.20
2022-10-19T08:59:28.490Z,14.13
2022-10-19T09:02:04.834Z,18.25
2022-10-19T09:04:36.651Z,15.73
2022-10-19T09:07:24.594Z,16.75
2022-10-19T09:10:14.612Z,14.20
2022-10-19T09:12:47.914Z,17.73
2022-10-19T09:15:42.299Z,14.18
2022-10-19T09:18:18.467Z,14.10
2022-10-19T09:20:48.724Z,15.25
2022-10-19T09:23:47.673Z,12.82
2022-10-19T09:26:20.180Z,12.57
2022-10-19T09:29:12.740Z,16.05
2022-10-19T09:31:43.322Z,15.77
2022-10-19T09:34:26.630Z,16.15
2022-10-19T09:36:58.782Z,13.07
2022-10-19T09:39:29.344Z,13.88
2022-10-19T09:42:16.364Z,14.70
2022-10-19T09:44:42.780Z,14.10
2022-10-19T09:47:18.229Z,11.50
2022-10-19T09:49:48.121Z,11.65
2022-10-19T09:52:41.895Z,12.52
2022-10-19T09:55:14.479Z,15.55
2022-10-19T09:57:48.850Z,15.37
2022-10-19T10:00:24.361Z,13.07
2022-10-19T10:02:55.242Z,13.40
2022-10-19T10:05:34.749Z,12.38
2022-10-19T10:08:01.517Z,10.60
2022-10-19T10:10:32.458Z,12.00
2022-10-19T10:13:00.317Z,12.13
2022-10-19T10:15:30.617Z,12.68
2022-10-19T10:17:58.238Z,10.55
2022-10-19T10:20:28.303Z,10.85
2022-10-19T10:23:06.142Z,9.37
2022-10-19T10:25:36.317Z,9.00
2022-10-19T10:28:19.811Z,10.13
2022-10-19T10:30:48.260Z,9.20
2022-10-19T10:33:43.852Z,9.80
2022-10-19T10:36:12.474Z,9.93
2022-10-19T10:38:44.980Z,8.73
2022-10-19T10:41:15.882Z,9.27
2022-10-19T10:44:04.575Z,10.07
2022-10-19T10:46:38.076Z,11.88
2022-10-19T10:49:07.524Z,9.37
2022-10-19T10:51:36.949Z,9.40
2022-10-19T10:54:22.609Z,7.93
2022-10-19T10:57:06.718Z,6.72
2022-10-19T10:59:45.755Z,6.38
2022-10-19T11:02:39.958Z,9.17
2022-10-19T11:05:32.117Z,6.25
2022-10-19T11:08:23.885Z,10.07
2022-10-19T11:11:14.011Z,6.95
2022-10-19T11:13:47.748Z,9.18
2022-10-19T11:16:16.518Z,8.50
2022-10-19T11:18:52.278Z,6.57
2022-10-19T11:21:46.758Z,10.25
2022-10-19T11:24:13.190Z,8.95
2022-10-19T11:26:39.637Z,6.65
2022-10-19T11:29:53.774Z,9.83
2022-10-19T11:32:46.100Z,5.93
2022-10-19T11:35:27.930Z,9.50
2022-10-19T11:38:36.034Z,11.65
2022-10-19T11:41:20.433Z,7.53
2022-10-19T11:44:01.038Z,6.83
2022-10-19T11:46:47.564Z,5.88
2022-10-19T11:49:41.131Z,10.45
2022-10-19T11:52:22.367Z,9.68
2022-10-19T11:54:58.792Z,7.68
2022-10-19T11:57:31.347Z,6.93
2022-10-19T12:00:33.888Z,7.57
2022-10-19T12:03:18.288Z,8.38
2022-10-19T12:06:00.859Z,7.85
2022-10-19T12:08:30.294Z,7.75
2022-10-19T12:11:08.756Z,6.83
2022-10-19T12:13:50.001Z,7.10
2022-10-19T12:16:18.479Z,8.13
2022-10-19T12:18:50.118Z,8.43
2022-10-19T12:21:29.220Z,9.95
2022-10-19T12:23:58.878Z,7.60
2022-10-19T12:26:29.026Z,8.65
2022-10-19T12:29:12.452Z,9.95
2022-10-19T12:31:39.096Z,8.68
2022-10-19T12:34:20.583Z,8.25
2022-10-19T12:37:00.734Z,6.60
2022-10-19T12:39:58.430Z,7.70
2022-10-19T12:42:41.695Z,8.05
2022-10-19T12:45:35.712Z,8.13
2022-10-19T12:48:08.127Z,8.73
2022-10-19T12:50:49.936Z,6.90
2022-10-19T12:53:49.126Z,7.18
2022-10-19T12:56:20.725Z,9.52
2022-10-19T12:58:53.044Z,8.10
2022-10-19T13:01:27.246Z,8.13
2022-10-19T13:04:15.242Z,9.53
2022-10-19T13:07:00.142Z,8.25
2022-10-19T13:09:31.763Z,10.38
2022-10-19T13:12:14.786Z,10.45
2022-10-19T13:14:54.514Z,9.35
2022-10-19T13:17:36.158Z,7.90
2022-10-19T13:20:14.839Z,7.60
2022-10-19T13:22:45.636Z,9.68
2022-10-19T13:25:26.905Z,8.18
2022-10-19T13:28:06.621Z,13.18
2022-10-19T13:30:36.226Z,9.27
2022-10-19T13:33:31.326Z,10.63
2022-10-19T13:36:00.627Z,8.30
2022-10-19T13:38:29.428Z,7.90
2022-10-19T13:40:58.041Z,11.98
2022-10-19T13:43:29.768Z,9.07
2022-10-19T13:46:11.865Z,8.60
2022-10-19T13:48:49.964Z,8.85
2022-10-19T13:51:37.439Z,9.50
2022-10-19T13:54:22.721Z,9.57
2022-10-19T13:57:04.288Z,7.00
2022-10-19T13:59:57.767Z,10.05
2022-10-19T14:03:05.390Z,8.88
2022-10-19T14:05:50.810Z,8.32
2022-10-19T14:08:38.467Z,9.98
2022-10-19T14:11:14.278Z,7.93
2022-10-19T14:13:40.746Z,11.52
2022-10-19T14:16:07.270Z,8.18
2022-10-19T14:18:36.352Z,14.20
2022-10-19T14:21:08.973Z,8.15
2022-10-19T14:23:40.029Z,6.60
2022-10-19T14:26:06.691Z,8.88
2022-10-19T14:28:34.041Z,10.02
2022-10-19T14:31:03.225Z,8.70
2022-10-19T14:33:35.325Z,10.13
2022-10-19T14:36:02.498Z,8.80
2022-10-19T14:38:38.271Z,9.35
2022-10-19T14:41:17.192Z,10.10
2022-10-19T14:43:43.579Z,8.38
2022-10-19T14:46:16.586Z,8.13
2022-10-19T14:48:48.691Z,6.43
2022-10-19T14:51:32.822Z,8.02
2022-10-19T14:54:11.367Z,7.93
2022-10-19T14:56:40.850Z,8.95
2022-10-19T14:59:20.205Z,9.18
2022-10-19T15:01:56.719Z,9.00
2022-10-19T15:04:27.456Z,7.65
2022-10-19T15:06:55.166Z,9.00
2022-10-19T15:09:37.671Z,10.20
2022-10-19T15:12:17.300Z,7.18
2022-10-19T15:14:45.736Z,6.93
2022-10-19T15:17:51.151Z,7.63
2022-10-19T15:20:49.305Z,9.70
2022-10-19T15:23:42.972Z,7.57
2022-10-19T15:26:17.119Z,12.40
2022-10-19T15:28:44.676Z,8.10
2022-10-19T15:31:31.406Z,10.52
2022-10-19T15:34:00.594Z,9.13
2022-10-19T15:36:29.419Z,8.30
2022-10-19T15:39:06.416Z,7.13
2022-10-19T15:41:44.808Z,10.43
2022-10-19T15:44:41.985Z,7.65
2022-10-19T15:47:20.248Z,9.23
2022-10-19T15:49:46.961Z,11.13
2022-10-19T15:52:15.503Z,9.27
2022-10-19T15:54:42.821Z,9.57
2022-10-19T15:57:26.068Z,11.73
2022-10-19T15:59:53.740Z,7.15
2022-10-19T16:02:20.152Z,7.88
2022-10-19T16:04:46.737Z,9.77
2022-10-19T16:07:20.949Z,7.17
2022-10-19T16:09:47.346Z,7.88
2022-10-19T16:12:13.748Z,8.43
2022-10-19T16:14:40.305Z,6.25
2022-10-19T16:17:06.754Z,7.05
2022-10-19T16:19:33.234Z,7.23
2022-10-19T16:21:59.731Z,9.93
2022-10-19T16:24:26.207Z,8.70
2022-10-19T16:26:52.636Z,10.20
2022-10-19T16:29:19.036Z,12.13
2022-10-19T16:31:45.473Z,7.57
2022-10-19T16:34:11.976Z,12.75
2022-10-19T16:36:38.463Z,9.43
2022-10-19T16:39:04.976Z,11.25
2022-10-19T16:41:32.018Z,14.38
2022-10-19T16:43:58.551Z,9.10
2022-10-19T16:46:25.800Z,8.85
2022-10-19T16:48:53.054Z,9.45
2022-10-19T16:51:27.621Z,8.75
2022-10-19T16:53:59.475Z,7.03
2022-10-19T16:56:28.538Z,13.37
2022-10-19T16:59:06.340Z,10.13
2022-10-19T17:01:35.044Z,9.45
2022-10-19T17:04:01.679Z,8.52
2022-10-19T17:06:28.792Z,14.05
2022-10-19T17:11:43.975Z,11.27
2022-10-19T17:14:12.232Z,9.52
2022-10-19T17:16:39.058Z,9.57
2022-10-19T17:19:07.298Z,11.82
2022-10-19T17:21:38.468Z,10.27
2022-10-19T17:24:08.314Z,12.68
2022-10-19T17:26:38.131Z,14.30
2022-10-19T17:29:05.809Z,11.43
2022-10-19T17:31:32.632Z,10.93
2022-10-19T17:34:00.744Z,9.47
2022-10-19T17:36:29.725Z,13.07
2022-10-19T17:38:58.653Z,11.68
2022-10-19T17:41:25.840Z,15.85
2022-10-19T17:43:53.452Z,11.60
2022-10-19T17:46:22.618Z,12.23
2022-10-19T17:48:49.352Z,11.98
2022-10-19T17:51:23.592Z,10.63
2022-10-19T17:53:50.845Z,12.00
2022-10-19T17:56:19.957Z,12.85
2022-10-19T17:58:47.268Z,10.73
2022-10-19T18:01:15.403Z,12.82
2022-10-19T18:03:41.989Z,11.60
2022-10-19T18:06:10.900Z,12.70
2022-10-19T18:08:40.541Z,11.68
2022-10-19T18:11:16.472Z,16.00
2022-10-19T18:13:43.509Z,11.68
2022-10-19T18:16:12.814Z,11.98
2022-10-19T18:18:41.698Z,11.77
2022-10-19T18:21:11.413Z,12.65
2022-10-19T18:23:38.292Z,14.20
2022-10-19T18:26:10.892Z,11.80
2022-10-19T18:28:37.985Z,12.35
2022-10-19T18:31:16.043Z,12.00
2022-10-19T18:33:42.854Z,12.93
2022-10-19T18:36:10.692Z,15.27
2022-10-19T18:38:38.584Z,15.40
2022-10-19T18:43:49.522Z,14.68
2022-10-19T18:46:18.535Z,13.77
2022-10-19T18:48:45.872Z,12.20
2022-10-19T18:51:13.055Z,13.75
2022-10-19T18:53:39.507Z,13.23
2022-10-19T18:56:08.302Z,17.20
2022-10-19T18:58:35.856Z,12.40
2022-10-19T19:01:07.021Z,13.43
2022-10-19T19:03:34.099Z,12.95
2022-10-19T19:06:04.973Z,13.18
2022-10-19T19:08:32.294Z,13.40
2022-10-19T19:11:11.113Z,14.38
2022-10-19T19:13:38.403Z,11.60
2022-10-19T19:16:05.620Z,12.98
2022-10-19T19:18:34.047Z,12.65
2022-10-19T19:21:02.189Z,15.88
2022-10-19T19:23:29.532Z,16.00
2022-10-19T19:25:57.093Z,14.07
2022-10-19T19:28:23.632Z,15.55
2022-10-19T19:30:50.148Z,11.93
2022-10-19T19:33:16.580Z,12.68
2022-10-19T19:35:47.720Z,12.65
2022-10-19T19:38:15.467Z,12.07
2022-10-19T19:40:44.632Z,17.10
2022-10-19T19:43:12.402Z,13.35
2022-10-19T19:45:39.437Z,13.55
2022-10-19T19:48:07.083Z,12.75
2022-10-19T19:50:34.832Z,13.53
2022-10-19T19:53:04.797Z,15.35
2022-10-19T19:55:36.765Z,14.00
2022-10-19T19:58:05.423Z,14.77
2022-10-19T20:00:31.894Z,15.95
2022-10-19T20:02:59.310Z,14.77
2022-10-19T20:05:26.578Z,14.60
2022-10-19T20:07:53.005Z,12.95
2022-10-19T20:10:19.549Z,13.52
2022-10-19T20:12:47.240Z,13.38
2022-10-19T20:15:15.664Z,14.30
2022-10-19T20:17:42.570Z,13.40
2022-10-19T20:20:10.322Z,15.25
2022-10-19T20:22:37.022Z,13.52
2022-10-19T20:25:04.754Z,13.90
2022-10-19T20:27:35.034Z,15.20
2022-10-19T20:30:01.712Z,11.80
2022-10-19T20:32:29.127Z,11.50
2022-10-19T20:34:55.614Z,9.75
2022-10-19T20:37:22.238Z,11.25
2022-10-19T20:39:49.255Z,12.93
2022-10-19T20:42:17.016Z,13.50
2022-10-19T20:44:43.902Z,17.48
2022-10-19T20:47:10.578Z,13.68
2022-10-19T20:49:37.044Z,11.05
2022-10-19T20:52:04.146Z,13.87
2022-10-19T20:54:30.720Z,12.82
2022-10-19T20:56:57.599Z,10.68
2022-10-19T20:59:27.790Z,11.35
2022-10-19T21:01:56.840Z,13.50
2022-10-19T21:04:25.544Z,13.90
2022-10-19T21:06:53.006Z,12.15
2022-10-19T21:09:22.376Z,10.20
2022-10-19T21:11:50.678Z,16.98
2022-10-19T21:14:22.408Z,13.98
2022-10-19T21:16:52.196Z,17.17
2022-10-19T21:19:22.098Z,13.88
2022-10-19T21:21:51.728Z,15.25
2022-10-19T21:24:23.730Z,11.23
2022-10-19T21:29:21.871Z,12.80
2022-10-19T21:31:50.127Z,14.02
2022-10-19T21:34:20.194Z,11.10
2022-10-19T21:36:47.322Z,17.10
2022-10-19T21:39:14.016Z,11.07
2022-10-19T21:41:40.538Z,13.17
2022-10-19T21:44:10.171Z,18.48
2022-10-19T21:46:36.543Z,12.93
2022-10-19T21:49:03.570Z,15.65
2022-10-19T21:51:37.557Z,16.58
2022-10-19T21:54:05.816Z,17.47
2022-10-19T21:56:33.658Z,15.10
2022-10-19T21:59:02.599Z,16.30
2022-10-19T22:01:30.367Z,15.23
2022-10-19T22:03:58.740Z,18.35
2022-10-19T22:06:27.656Z,15.97
2022-10-19T22:08:54.329Z,14.95
2022-10-19T22:11:21.297Z,13.68
2022-10-19T22:13:47.860Z,15.10
2022-10-19T22:16:19.348Z,14.82
2022-10-19T22:18:46.830Z,15.40
2022-10-19T22:21:16.269Z,13.98
2022-10-19T22:23:43.224Z,21.73
2022-10-19T22:26:18.071Z,15.23
2022-10-19T22:28:44.830Z,15.48
2022-10-19T22:31:12.377Z,16.37
2022-10-19T22:33:39.429Z,14.45
2022-10-19T22:36:07.998Z,16.10
2022-10-19T22:38:35.347Z,15.13
2022-10-19T22:41:01.787Z,20.70
2022-10-19T22:43:28.230Z,19.30
2022-10-19T22:45:54.605Z,16.25
2022-10-19T22:48:21.094Z,14.50
2022-10-19T22:50:47.547Z,15.25
2022-10-19T22:53:13.943Z,23.05
2022-10-19T22:55:40.356Z,17.13
2022-10-19T22:58:08.000Z,17.95
2022-10-19T23:00:34.426Z,14.55
2022-10-19T23:03:00.903Z,17.55
2022-10-19T23:05:27.254Z,22.52
2022-10-19T23:07:53.615Z,23.73
2022-10-19T23:10:20.130Z,19.98
2022-10-19T23:12:53.990Z,18.15
2022-10-19T23:15:21.175Z,18.40
2022-10-19T23:17:47.892Z,16.42
2022-10-19T23:20:15.765Z,20.70
2022-10-19T23:22:42.132Z,16.00
2022-10-19T23:25:09.176Z,13.88
2022-10-19T23:27:35.819Z,21.58
2022-10-19T23:30:03.916Z,17.77
2022-10-19T23:32:30.300Z,20.30
2022-10-19T23:34:56.833Z,17.65
2022-10-19T23:37:23.204Z,19.02
2022-10-19T23:39:49.665Z,21.33
2022-10-19T23:42:16.139Z,16.15
2022-10-19T23:44:42.618Z,18.27
2022-10-19T23:47:08.994Z,17.15
2022-10-19T23:49:35.357Z,15.68
2022-10-19T23:52:01.827Z,18.10
2022-10-19T23:54:28.195Z,25.30
2022-10-19T23:56:54.583Z,21.40
2022-10-19T23:59:21.033Z,19.27
